Time;durP1;ratioP1;P1;durP2;ratioP2;P2;SDS_P1;SDS_P2;PMS_P1;PMS_P2;Temp;Humidity;BMP_temperature;BMP_pressure;BME280_temperature;BME280_humidity;BME280_pressure;Samples;Min_cycle;Max_cycle;Signal;HPM_P1;HPM_P2
2022/09/12 00:00:50;;;;;;;2.65;2.42;;;16.50;99.90;;;;;;4108822;28;20169;-69
2022/09/12 00:02:53;;;;;;;4.15;2.80;;;16.50;99.90;;;;;;4114561;28;20050;-69
2022/09/12 00:04:54;;;;;;;3.58;2.85;;;16.50;99.90;;;;;;4114673;28;20050;-70
2022/09/12 00:06:54;;;;;;;3.28;2.55;;;16.50;99.90;;;;;;4113419;28;20053;-70
2022/09/12 00:08:57;;;;;;;3.28;2.95;;;16.50;99.90;;;;;;4111902;28;20024;-69
2022/09/12 00:11:04;;;;;;;4.57;3.55;;;16.50;99.90;;;;;;4111426;28;20046;-69
2022/09/12 00:13:05;;;;;;;4.68;3.47;;;16.40;99.90;;;;;;4114245;28;20042;-69
2022/09/12 00:15:06;;;;;;;5.32;3.40;;;16.50;99.90;;;;;;4113148;28;20042;-68
2022/09/12 00:17:07;;;;;;;5.18;3.50;;;16.40;99.90;;;;;;4114119;28;20487;-69
2022/09/12 00:19:08;;;;;;;3.70;3.20;;;16.40;99.90;;;;;;4112079;28;20049;-69
2022/09/12 00:21:09;;;;;;;3.90;3.25;;;16.40;99.90;;;;;;4112325;28;20086;-69
2022/09/12 00:23:10;;;;;;;3.88;3.25;;;16.40;99.90;;;;;;4114617;28;20130;-69
2022/09/12 00:25:11;;;;;;;3.80;3.35;;;16.40;99.90;;;;;;4108518;28;20066;-69
2022/09/12 00:27:11;;;;;;;5.78;3.72;;;16.40;99.90;;;;;;4114568;28;20817;-69
2022/09/12 00:29:17;;;;;;;3.80;3.17;;;16.40;99.90;;;;;;4112288;28;20467;-68
2022/09/12 00:31:22;;;;;;;4.72;4.15;;;16.40;99.90;;;;;;4111122;28;20391;-69
2022/09/12 00:33:23;;;;;;;4.13;3.53;;;16.40;99.90;;;;;;4112096;28;20587;-69
2022/09/12 00:35:23;;;;;;;4.60;3.35;;;16.40;99.90;;;;;;4112008;28;20054;-69
2022/09/12 00:37:24;;;;;;;5.88;3.33;;;16.40;99.90;;;;;;4113741;28;20042;-69
2022/09/12 00:39:24;;;;;;;3.47;2.78;;;16.30;99.90;;;;;;4112739;28;20117;-70
2022/09/12 00:41:32;;;;;;;3.10;2.80;;;16.30;99.90;;;;;;4110573;28;20307;-69
2022/09/12 00:43:36;;;;;;;4.22;3.47;;;16.20;99.90;;;;;;4114170;28;20034;-69
2022/09/12 00:45:37;;;;;;;4.32;3.38;;;16.20;99.90;;;;;;4112878;28;20063;-70
2022/09/12 00:47:37;;;;;;;3.92;3.17;;;16.20;99.90;;;;;;4114073;28;20035;-70
2022/09/12 00:49:41;;;;;;;5.60;3.42;;;16.20;99.90;;;;;;4112382;28;20035;-70
2022/09/12 00:51:47;;;;;;;3.92;2.95;;;16.20;99.90;;;;;;4110033;28;20121;-70
2022/09/12 00:53:51;;;;;;;4.07;3.13;;;16.20;99.90;;;;;;4114327;28;20054;-69
2022/09/12 00:55:54;;;;;;;3.97;3.25;;;16.10;99.90;;;;;;4111553;28;20039;-70
2022/09/12 00:58:03;;;;;;;3.53;2.83;;;16.10;99.90;;;;;;4113297;28;20035;-70
2022/09/12 01:00:15;;;;;;;3.28;2.97;;;16.10;99.90;;;;;;4110137;28;20038;-69
2022/09/12 01:02:16;;;;;;;3.30;3.00;;;16.00;99.90;;;;;;4111504;28;20383;-70
2022/09/12 01:04:20;;;;;;;6.20;3.30;;;16.00;99.90;;;;;;4114016;28;20046;-70
2022/09/12 01:06:34;;;;;;;3.85;3.42;;;16.00;99.90;;;;;;4113102;28;20086;-69
2022/09/12 01:08:36;;;;;;;5.15;3.42;;;16.00;99.90;;;;;;4111834;28;20050;-69
2022/09/12 01:10:39;;;;;;;3.83;3.30;;;16.00;99.90;;;;;;4109287;28;20030;-70
2022/09/12 01:12:40;;;;;;;;;;;16.00;99.90;;;;;;4112247;28;20031;-69
2022/09/12 01:14:41;;;;;;;3.83;2.90;;;16.00;99.90;;;;;;4110635;28;19918;-70
2022/09/12 01:16:42;;;;;;;4.75;3.33;;;16.00;99.90;;;;;;4112531;28;20038;-69
2022/09/12 01:19:19;;;;;;;3.95;3.33;;;16.00;99.90;;;;;;4111218;28;20066;-70
2022/09/12 01:21:43;;;;;;;5.07;3.30;;;16.00;99.90;;;;;;4051014;29;20067;-70
2022/09/12 01:24:01;;;;;;;3.13;2.83;;;15.90;99.90;;;;;;4095678;28;20062;-70
2022/09/12 01:26:13;;;;;;;3.65;3.28;;;15.90;99.90;;;;;;4109516;28;20034;-69
2022/09/12 01:28:13;;;;;;;4.45;3.50;;;15.90;99.90;;;;;;4113563;28;20039;-69
2022/09/12 01:30:29;;;;;;;4.18;3.13;;;15.90;99.90;;;;;;4111123;28;20525;-69
2022/09/12 01:32:54;;;;;;;3.47;3.03;;;15.90;99.90;;;;;;4112246;28;20059;-70
2022/09/12 01:35:31;;;;;;;3.70;3.10;;;15.80;99.90;;;;;;4113238;28;20110;-69
2022/09/12 01:37:40;;;;;;;3.70;3.10;;;15.90;99.90;;;;;;4111810;28;20037;-70
2022/09/12 01:40:03;;;;;;;4.30;3.40;;;15.80;99.90;;;;;;4108852;28;20051;-70
2022/09/12 01:42:09;;;;;;;;;;;15.80;99.90;;;;;;4111689;28;20546;-70
2022/09/12 01:44:21;;;;;;;4.28;3.30;;;15.80;99.90;;;;;;4113291;28;19910;-70
2022/09/12 01:46:40;;;;;;;4.50;3.55;;;15.80;99.90;;;;;;4109995;28;20042;-70
2022/09/12 01:48:58;;;;;;;4.68;3.45;;;15.80;99.90;;;;;;4107251;28;20041;-70
2022/09/12 01:51:31;;;;;;;5.38;3.55;;;15.80;99.90;;;;;;4109642;28;20479;-70
2022/09/12 01:53:50;;;;;;;3.15;2.85;;;15.70;99.90;;;;;;4111617;28;20038;-70
2022/09/12 01:55:57;;;;;;;4.28;3.40;;;15.70;99.90;;;;;;4112731;28;20097;-69
2022/09/12 01:58:08;;;;;;;3.17;2.83;;;15.70;99.90;;;;;;4108870;28;20014;-70
2022/09/12 02:00:10;;;;;;;4.20;3.35;;;15.70;99.90;;;;;;4107232;28;20114;-69
2022/09/12 02:02:24;;;;;;;3.90;3.45;;;15.70;99.90;;;;;;4111117;28;20053;-70
2022/09/12 02:04:29;;;;;;;3.90;3.53;;;15.70;99.90;;;;;;4108395;28;20031;-69
2022/09/12 02:06:36;;;;;;;5.60;3.35;;;15.70;99.90;;;;;;4111813;28;20093;-70
2022/09/12 02:08:44;;;;;;;6.55;4.15;;;15.70;99.90;;;;;;4112228;28;20030;-69
2022/09/12 02:11:11;;;;;;;3.92;3.53;;;15.70;99.90;;;;;;4108705;28;20023;-69
2022/09/12 02:13:34;;;;;;;6.00;4.03;;;15.70;99.90;;;;;;4109574;28;20035;-69
2022/09/12 02:15:39;;;;;;;5.78;4.00;;;15.70;99.90;;;;;;4081431;28;20085;-70
2022/09/12 02:17:44;;;;;;;5.72;4.38;;;15.70;99.90;;;;;;4110279;28;20031;-70
2022/09/12 02:19:56;;;;;;;6.38;4.60;;;15.70;99.90;;;;;;4108263;28;20109;-70
2022/09/12 02:22:02;;;;;;;5.57;4.50;;;15.70;99.90;;;;;;4110921;28;20487;-70
2022/09/12 02:24:08;;;;;;;5.70;4.63;;;15.70;99.90;;;;;;4112539;28;20038;-69
2022/09/12 02:26:19;;;;;;;6.25;4.18;;;15.70;99.90;;;;;;4111044;28;20507;-70
2022/09/12 02:28:28;;;;;;;4.53;4.00;;;15.70;99.90;;;;;;4112241;28;20035;-70
2022/09/12 02:30:42;;;;;;;5.75;4.22;;;15.70;99.90;;;;;;4107651;28;20505;-70
2022/09/12 02:32:57;;;;;;;6.25;4.22;;;15.70;99.90;;;;;;4108791;28;20398;-70
2022/09/12 02:35:07;;;;;;;5.50;3.88;;;15.70;99.90;;;;;;4112077;28;20023;-70
2022/09/12 02:37:17;;;;;;;8.02;3.90;;;15.60;99.90;;;;;;4109262;28;20522;-70
2022/09/12 02:39:19;;;;;;;5.55;4.00;;;15.60;99.90;;;;;;4111660;28;20038;-69
2022/09/12 02:41:21;;;;;;;5.45;4.20;;;16.30;99.90;;;;;;4110838;28;20027;-70
2022/09/12 02:43:21;;;;;;;4.72;3.90;;;17.40;99.90;;;;;;4112553;28;20077;-70
2022/09/12 02:45:22;;;;;;;5.65;3.92;;;16.20;99.90;;;;;;4110691;28;20023;-70
2022/09/12 02:47:30;;;;;;;5.07;3.65;;;15.60;99.90;;;;;;4111344;28;20046;-70
2022/09/12 02:49:31;;;;;;;5.40;3.70;;;;;;;;;;4111709;28;20043;-70
2022/09/12 02:51:32;;;;;;;5.45;3.78;;;;;;;;;;4110523;28;20038;-70
2022/09/12 02:53:33;;;;;;;6.28;4.05;;;;;;;;;;4112261;28;20082;-70
2022/09/12 02:55:35;;;;;;;6.32;4.10;;;13.90;99.90;;;;;;4107561;28;20089;-70
2022/09/12 02:57:37;;;;;;;6.97;4.30;;;;;;;;;;4112399;28;20126;-70
2022/09/12 02:59:38;;;;;;;5.13;3.65;;;;;;;;;;4109434;28;20050;-70
2022/09/12 03:01:57;;;;;;;6.90;4.03;;;;;;;;;;4107256;28;20041;-70
2022/09/12 07:30:06;;;;;;;29.38;16.40;;;16.40;99.90;;;;;;4135441;27;20410;-65
2022/09/12 07:32:07;;;;;;;31.45;16.77;;;16.40;99.90;;;;;;4143718;28;20061;-67
2022/09/12 07:34:08;;;;;;;31.30;18.42;;;16.40;99.90;;;;;;4150314;28;20156;-63
2022/09/12 07:36:15;;;;;;;30.27;18.45;;;16.40;99.90;;;;;;4153263;28;20467;-65
2022/09/12 07:38:15;;;;;;;31.23;17.75;;;16.40;99.90;;;;;;4152749;28;20044;-64
2022/09/12 07:40:16;;;;;;;25.98;16.17;;;16.40;99.90;;;;;;4152255;28;20037;-63
2022/09/12 07:42:16;;;;;;;22.60;14.88;;;16.50;99.90;;;;;;4153904;28;20065;-64
2022/09/12 07:44:17;;;;;;;23.42;15.23;;;16.50;99.90;;;;;;4141325;28;20977;-63
2022/09/12 07:46:18;;;;;;;23.90;15.13;;;16.50;99.90;;;;;;4136419;28;20061;-65
2022/09/12 07:48:19;;;;;;;22.17;14.70;;;16.60;99.90;;;;;;4135896;28;20911;-65
2022/09/12 07:50:19;;;;;;;22.10;14.05;;;16.60;99.90;;;;;;4135575;28;20042;-63
2022/09/12 07:52:20;;;;;;;22.45;15.05;;;16.70;99.90;;;;;;4152453;28;20064;-63
2022/09/12 07:54:21;;;;;;;23.20;14.68;;;16.80;99.90;;;;;;4154196;28;20030;-64
2022/09/12 07:56:22;;;;;;;21.88;14.18;;;16.80;99.90;;;;;;4150049;28;20164;-64
2022/09/12 07:58:23;;;;;;;20.05;13.30;;;16.90;99.90;;;;;;4152268;28;20033;-64
2022/09/12 08:00:24;;;;;;;18.85;13.02;;;16.90;99.90;;;;;;4149833;28;20414;-65
2022/09/12 08:02:25;;;;;;;19.85;13.07;;;17.00;99.90;;;;;;4153664;28;20030;-63
2022/09/12 08:04:25;;;;;;;21.88;14.25;;;17.10;99.90;;;;;;4155541;28;20037;-65
2022/09/12 08:06:30;;;;;;;20.17;14.15;;;17.10;99.90;;;;;;4148712;28;20091;-64
2022/09/12 08:08:30;;;;;;;22.70;14.30;;;17.20;99.90;;;;;;4145977;28;20034;-63
2022/09/12 08:10:31;;;;;;;21.60;13.90;;;17.20;99.90;;;;;;4135837;28;20380;-64
2022/09/12 08:12:33;;;;;;;18.98;12.90;;;17.30;99.90;;;;;;4135672;28;20029;-63
2022/09/12 08:14:33;;;;;;;20.45;12.55;;;17.50;99.90;;;;;;4133843;28;20046;-63
2022/09/12 08:16:34;;;;;;;19.23;12.90;;;17.60;99.90;;;;;;4134361;28;20052;-63
2022/09/12 08:18:35;;;;;;;17.50;12.68;;;17.70;99.90;;;;;;4137578;28;20034;-64
2022/09/12 08:20:36;;;;;;;17.75;12.77;;;17.80;99.90;;;;;;4133117;28;20477;-64
2022/09/12 08:22:37;;;;;;;23.40;13.88;;;18.00;99.90;;;;;;4134111;28;20125;-66
2022/09/12 08:24:38;;;;;;;16.58;11.73;;;18.10;99.90;;;;;;4134819;28;20042;-67
2022/09/12 08:26:39;;;;;;;17.58;12.50;;;18.20;99.90;;;;;;4134980;28;20026;-64
2022/09/12 08:28:44;;;;;;;17.23;11.75;;;18.30;99.90;;;;;;4137605;28;20708;-63
2022/09/12 08:30:45;;;;;;;17.02;11.48;;;18.40;99.90;;;;;;4133990;28;20061;-63
2022/09/12 08:32:46;;;;;;;19.67;12.70;;;18.50;99.90;;;;;;4141749;28;20065;-64
2022/09/12 08:34:46;;;;;;;20.75;12.80;;;18.60;99.90;;;;;;4153698;28;20486;-64
2022/09/12 08:36:47;;;;;;;15.90;11.88;;;18.70;99.90;;;;;;4151291;28;20044;-65
2022/09/12 08:38:50;;;;;;;17.10;10.70;;;18.80;99.90;;;;;;4152668;28;20033;-63
2022/09/12 08:40:54;;;;;;;;;;;18.80;99.90;;;;;;4144680;28;20112;-66
2022/09/12 08:43:30;;;;;;;16.65;10.93;;;19.00;99.90;;;;;;4140594;28;19936;-63
2022/09/12 08:45:57;;;;;;;15.82;10.27;;;19.00;99.90;;;;;;4135723;28;20045;-67
2022/09/12 08:48:01;;;;;;;15.68;10.10;;;19.10;99.90;;;;;;4138144;28;20034;-65
2022/09/12 08:50:21;;;;;;;19.17;11.25;;;19.20;99.90;;;;;;4135869;28;20034;-63
2022/09/12 08:52:37;;;;;;;16.33;10.93;;;19.30;99.90;;;;;;4131547;28;20093;-64
2022/09/12 08:54:38;;;;;;;12.65;8.85;;;19.50;99.90;;;;;;4138994;28;20045;-66
2022/09/12 08:56:39;;;;;;;15.18;9.77;;;19.50;99.90;;;;;;4140019;28;20038;-63
2022/09/12 08:58:43;;;;;;;13.32;9.63;;;19.60;99.90;;;;;;4141586;28;20057;-63
2022/09/12 09:01:03;;;;;;;12.20;9.20;;;19.70;99.90;;;;;;4139133;28;20042;-63
2022/09/12 09:03:09;;;;;;;13.73;9.70;;;19.80;99.90;;;;;;4138879;28;20034;-66
2022/09/12 09:05:41;;;;;;;14.05;9.23;;;20.00;99.90;;;;;;4138668;28;20053;-65
2022/09/12 09:08:06;;;;;;;13.23;9.05;;;20.10;99.90;;;;;;4139359;28;20044;-64
2022/09/12 09:10:42;;;;;;;13.40;9.18;;;20.20;99.90;;;;;;4139075;28;20029;-64
2022/09/12 09:13:04;;;;;;;13.25;9.45;;;20.40;99.90;;;;;;4140185;28;20131;-65
2022/09/12 09:15:40;;;;;;;12.77;9.18;;;20.50;99.90;;;;;;4129742;28;20062;-65
2022/09/12 09:17:48;;;;;;;9.98;7.85;;;20.70;99.90;;;;;;4138307;28;20042;-64
2022/09/12 09:19:56;;;;;;;10.63;7.30;;;20.80;99.90;;;;;;4140345;28;20045;-65
2022/09/12 09:22:05;;;;;;;13.93;9.32;;;20.80;99.90;;;;;;4132146;28;20442;-65
2022/09/12 09:24:11;;;;;;;10.88;8.13;;;20.90;99.90;;;;;;4140162;28;20030;-64
2022/09/12 09:26:21;;;;;;;10.40;7.55;;;21.00;99.90;;;;;;4139738;28;20034;-64
2022/09/12 09:28:45;;;;;;;12.50;8.20;;;21.10;99.90;;;;;;4139084;28;20042;-65
2022/09/12 09:30:45;;;;;;;12.68;8.80;;;21.10;99.90;;;;;;4128704;28;20107;-64
2022/09/12 09:32:51;;;;;;;10.55;7.90;;;21.20;99.90;;;;;;4132910;28;20037;-64
2022/09/12 09:34:52;;;;;;;9.48;6.97;;;21.30;99.90;;;;;;4134293;28;20471;-64
2022/09/12 09:37:17;;;;;;;9.02;6.65;;;21.40;99.90;;;;;;4136972;28;20039;-65
2022/09/12 09:39:36;;;;;;;9.57;7.18;;;21.40;99.90;;;;;;4140173;28;20042;-64
2022/09/12 09:42:07;;;;;;;11.65;7.03;;;21.40;99.90;;;;;;4139003;28;20034;-64
2022/09/12 09:44:08;;;;;;;9.23;6.45;;;21.60;99.90;;;;;;4138581;28;20467;-65
2022/09/12 09:46:10;;;;;;;11.38;6.65;;;21.60;99.90;;;;;;4138273;28;20038;-64
2022/09/12 09:48:18;;;;;;;9.43;6.33;;;21.60;99.90;;;;;;4138395;28;20046;-64
2022/09/12 09:50:19;;;;;;;6.85;5.55;;;21.60;99.90;;;;;;4138158;28;20038;-66
2022/09/12 09:52:27;;;;;;;8.38;6.22;;;21.70;99.90;;;;;;4138029;28;20101;-64
2022/09/12 09:54:43;;;;;;;9.52;6.55;;;21.80;99.90;;;;;;4122774;28;20507;-65
2022/09/12 09:56:44;;;;;;;8.50;6.05;;;21.80;99.90;;;;;;4138163;28;20909;-66
2022/09/12 09:58:44;;;;;;;10.70;7.00;;;21.90;99.90;;;;;;4139204;28;20042;-65
2022/09/12 10:00:46;;;;;;;7.32;5.72;;;22.00;99.90;;;;;;4137850;28;20044;-65
2022/09/12 10:03:11;;;;;;;7.07;5.60;;;22.00;99.90;;;;;;4136560;28;20038;-66
2022/09/12 10:05:16;;;;;;;9.25;6.80;;;22.10;99.90;;;;;;4136486;28;20049;-64
2022/09/12 10:07:18;;;;;;;7.03;5.32;;;22.20;99.90;;;;;;4141173;28;20157;-64
2022/09/12 10:09:23;;;;;;;;;;;22.20;99.90;;;;;;4138621;28;20053;-64
2022/09/12 10:11:27;;;;;;;7.65;5.40;;;22.30;99.90;;;;;;4139009;28;19909;-64
2022/09/12 10:13:56;;;;;;;10.23;5.70;;;22.40;99.90;;;;;;4137708;28;21048;-64
2022/09/12 10:16:02;;;;;;;9.63;6.35;;;22.50;99.90;;;;;;4131443;28;20037;-64
2022/09/12 10:18:03;;;;;;;7.88;5.80;;;22.50;99.90;;;;;;4140824;28;20060;-64
2022/09/12 10:20:24;;;;;;;7.13;5.03;;;22.60;99.90;;;;;;4136300;28;20037;-65
2022/09/12 10:22:27;;;;;;;9.13;5.60;;;22.70;99.90;;;;;;4142132;28;20054;-64
2022/09/12 10:24:41;;;;;;;8.25;6.10;;;22.70;99.90;;;;;;4137149;28;20042;-64
2022/09/12 10:26:57;;;;;;;7.38;5.07;;;22.80;99.90;;;;;;4137614;28;20034;-64
2022/09/12 10:29:11;;;;;;;6.57;5.03;;;22.90;99.90;;;;;;4130914;28;20042;-64
2022/09/12 10:31:27;;;;;;;6.00;4.85;;;22.90;99.90;;;;;;4156283;28;20037;-65
2022/09/12 10:33:28;;;;;;;6.75;4.90;;;22.90;99.90;;;;;;4138524;28;20037;-65
2022/09/12 10:35:41;;;;;;;6.13;4.45;;;23.00;99.90;;;;;;4134555;28;20054;-64
2022/09/12 10:38:05;;;;;;;8.35;4.45;;;23.10;99.90;;;;;;4133300;28;20038;-64
2022/09/12 10:40:20;;;;;;;5.50;4.03;;;23.10;99.90;;;;;;4140113;28;20072;-64
2022/09/12 10:42:52;;;;;;;7.05;4.75;;;23.20;99.90;;;;;;4138933;28;20616;-64
2022/09/12 10:44:54;;;;;;;7.15;5.00;;;23.20;99.90;;;;;;4133185;28;20064;-64
2022/09/12 10:46:56;;;;;;;7.40;5.07;;;23.20;99.90;;;;;;4137892;28;20041;-65
2022/09/12 10:49:46;;;;;;;5.90;4.55;;;23.20;99.90;;;;;;4140859;28;20483;-64
2022/09/12 10:51:47;;;;;;;5.82;4.70;;;23.30;99.90;;;;;;4116656;28;20519;-65
2022/09/12 10:53:49;;;;;;;5.40;4.30;;;23.30;99.90;;;;;;4136389;28;20038;-65
2022/09/12 10:56:09;;;;;;;5.23;4.20;;;23.40;99.90;;;;;;4140160;28;20434;-64
2022/09/12 10:58:29;;;;;;;4.97;4.25;;;23.40;99.90;;;;;;4138717;28;20032;-64
2022/09/12 11:00:33;;;;;;;5.30;3.72;;;23.40;99.90;;;;;;4137742;28;20153;-64
2022/09/12 11:03:04;;;;;;;4.75;3.40;;;23.50;99.90;;;;;;4138198;28;20075;-65
2022/09/12 11:05:35;;;;;;;6.85;4.20;;;23.50;99.90;;;;;;4138633;28;20052;-64
2022/09/12 11:08:01;;;;;;;9.05;3.85;;;23.50;99.90;;;;;;4138785;28;20379;-65
2022/09/12 11:10:29;;;;;;;6.03;3.67;;;23.50;99.90;;;;;;4136318;28;20029;-65
2022/09/12 11:12:54;;;;;;;4.60;3.85;;;23.50;99.90;;;;;;4137609;28;20034;-65
2022/09/12 11:15:03;;;;;;;3.50;2.97;;;23.60;99.90;;;;;;4139271;28;20045;-66
2022/09/12 11:17:19;;;;;;;5.07;3.70;;;23.60;99.90;;;;;;4136385;28;20027;-64
2022/09/12 11:19:34;;;;;;;3.83;3.40;;;23.60;99.90;;;;;;4139645;28;20061;-66
2022/09/12 11:21:52;;;;;;;3.92;3.33;;;23.60;99.90;;;;;;4138982;28;20034;-65
2022/09/12 11:24:12;;;;;;;3.63;3.17;;;23.70;99.90;;;;;;4128178;28;20065;-64
2022/09/12 11:26:23;;;;;;;3.78;3.10;;;23.80;99.90;;;;;;4140379;28;20046;-65
2022/09/12 11:28:50;;;;;;;4.30;2.83;;;23.80;99.80;;;;;;4132144;28;20046;-65
2022/09/12 11:30:54;;;;;;;3.78;2.95;;;23.80;99.90;;;;;;4137318;28;20104;-65
2022/09/12 11:33:21;;;;;;;4.53;3.35;;;23.80;99.90;;;;;;4135891;28;20053;-64
2022/09/12 11:35:27;;;;;;;5.55;3.50;;;23.80;99.90;;;;;;4139076;28;20038;-65
2022/09/12 11:37:49;;;;;;;5.30;3.28;;;23.90;99.90;;;;;;4139410;28;20076;-64
2022/09/12 11:39:51;;;;;;;6.03;3.45;;;23.90;99.90;;;;;;4139268;28;20089;-64
2022/09/12 11:41:59;;;;;;;5.20;3.10;;;23.90;99.90;;;;;;4138236;28;20057;-64
2022/09/12 11:44:22;;;;;;;3.67;2.72;;;24.00;99.90;;;;;;4139194;28;20041;-65
2022/09/12 11:46:28;;;;;;;4.85;3.33;;;24.00;99.90;;;;;;4137229;28;20033;-64
2022/09/12 11:48:38;;;;;;;4.65;3.15;;;24.10;99.90;;;;;;4133597;28;20038;-65
2022/09/12 11:50:39;;;;;;;4.30;2.90;;;24.00;99.50;;;;;;4137389;28;20045;-68
2022/09/12 11:52:40;;;;;;;4.40;2.83;;;24.10;98.90;;;;;;4139792;28;20046;-64
2022/09/12 11:54:59;;;;;;;3.00;2.20;;;24.10;98.90;;;;;;4139590;28;20526;-64
2022/09/12 11:57:08;;;;;;;4.38;2.50;;;24.10;98.10;;;;;;4136882;28;20069;-64
2022/09/12 11:59:20;;;;;;;4.00;2.00;;;24.20;96.80;;;;;;4136591;28;20438;-64
2022/09/12 12:01:33;;;;;;;2.83;2.30;;;24.20;97.80;;;;;;4135336;28;20061;-65
2022/09/12 12:03:43;;;;;;;5.15;2.05;;;24.20;97.50;;;;;;4136415;28;20054;-64
2022/09/12 12:05:51;;;;;;;4.30;2.78;;;24.20;96.90;;;;;;4137258;28;20053;-66
2022/09/12 12:07:57;;;;;;;2.83;2.00;;;24.20;96.70;;;;;;4138542;28;20050;-64
2022/09/12 12:09:57;;;;;;;5.65;1.65;;;24.20;95.20;;;;;;4138102;28;20041;-64
2022/09/12 12:12:03;;;;;;;2.88;2.05;;;24.20;94.50;;;;;;4139352;28;21366;-64
2022/09/12 12:14:12;;;;;;;3.03;1.85;;;24.30;96.10;;;;;;4131509;28;20521;-64
2022/09/12 12:16:15;;;;;;;2.63;1.63;;;24.30;95.00;;;;;;4139317;28;20042;-64
2022/09/12 12:18:23;;;;;;;2.00;1.65;;;24.30;94.70;;;;;;4142559;28;20475;-65
2022/09/12 12:20:23;;;;;;;3.20;2.40;;;24.40;95.50;;;;;;4132206;28;21111;-65
2022/09/12 12:22:24;;;;;;;2.95;1.90;;;24.40;94.60;;;;;;4141871;28;20387;-64
2022/09/12 12:24:29;;;;;;;3.00;1.92;;;24.50;94.80;;;;;;4141288;28;20026;-64
2022/09/12 12:26:38;;;;;;;3.20;2.15;;;24.40;94.50;;;;;;4136240;28;20033;-65
2022/09/12 12:28:41;;;;;;;1.50;1.40;;;24.40;95.40;;;;;;4143017;28;20058;-64
2022/09/12 12:30:54;;;;;;;3.42;1.80;;;24.50;96.10;;;;;;4140426;28;20038;-64
2022/09/12 12:33:06;;;;;;;2.45;1.85;;;24.50;96.60;;;;;;4139590;28;20037;-64
2022/09/12 12:35:45;;;;;;;3.17;2.00;;;24.60;95.10;;;;;;4141208;28;20061;-64
2022/09/12 12:37:51;;;;;;;1.95;1.40;;;24.60;94.20;;;;;;4140041;28;20046;-64
2022/09/12 12:40:06;;;;;;;2.20;1.70;;;24.60;93.70;;;;;;4137547;28;20051;-64
2022/09/12 12:42:06;;;;;;;2.50;1.95;;;24.60;93.10;;;;;;4140754;28;20430;-65
2022/09/12 12:44:44;;;;;;;3.25;2.00;;;24.70;93.90;;;;;;4141098;28;20041;-65
2022/09/12 12:47:14;;;;;;;4.90;2.22;;;24.70;93.00;;;;;;4140478;28;20037;-64
2022/09/12 12:49:25;;;;;;;2.25;1.60;;;24.70;93.30;;;;;;4141169;28;20038;-64
2022/09/12 12:51:55;;;;;;;2.20;1.67;;;24.70;92.60;;;;;;4139388;28;20084;-65
2022/09/12 12:53:57;;;;;;;2.38;1.88;;;24.70;92.90;;;;;;4138837;28;20095;-64
2022/09/12 12:56:00;;;;;;;2.50;1.80;;;24.80;93.40;;;;;;4141055;28;20458;-65
2022/09/12 12:58:04;;;;;;;2.90;1.75;;;24.80;92.10;;;;;;4142589;28;20030;-64
2022/09/12 13:00:25;;;;;;;2.83;1.70;;;24.80;91.30;;;;;;4138489;28;20065;-64
2022/09/12 13:02:33;;;;;;;1.73;1.40;;;24.70;91.90;;;;;;4141910;28;20112;-64
2022/09/12 13:04:34;;;;;;;1.80;1.20;;;24.80;92.00;;;;;;4137947;28;20040;-64
2022/09/12 13:06:41;;;;;;;1.52;1.27;;;24.80;91.70;;;;;;4140834;28;20661;-64
2022/09/12 13:08:54;;;;;;;2.42;1.40;;;24.80;92.00;;;;;;4141324;28;20391;-65
2022/09/12 13:11:07;;;;;;;3.50;1.38;;;24.80;91.20;;;;;;4141982;28;20030;-64
2022/09/12 13:13:08;;;;;;;2.70;1.80;;;24.70;90.50;;;;;;4142181;28;20113;-64
2022/09/12 13:15:36;;;;;;;3.25;1.65;;;24.70;90.20;;;;;;4137861;28;20096;-64
2022/09/12 13:17:40;;;;;;;2.60;1.70;;;24.70;91.10;;;;;;4139776;28;20037;-64
2022/09/12 13:19:41;;;;;;;3.25;1.90;;;24.80;90.70;;;;;;4141253;28;20046;-66
2022/09/12 13:22:02;;;;;;;7.28;1.67;;;24.80;91.40;;;;;;4141242;28;20133;-64
2022/09/12 13:24:13;;;;;;;1.58;1.38;;;24.70;90.40;;;;;;4140074;28;20526;-64
2022/09/12 13:26:24;;;;;;;4.05;2.10;;;24.80;90.20;;;;;;4140561;28;20040;-64
2022/09/12 13:28:29;;;;;;;3.20;1.88;;;24.70;90.40;;;;;;4139913;28;20041;-64
2022/09/12 13:30:35;;;;;;;2.85;1.70;;;24.80;90.80;;;;;;4139777;28;20874;-65
2022/09/12 13:32:36;;;;;;;2.25;1.63;;;24.80;91.00;;;;;;4140286;28;20045;-64
2022/09/12 13:34:52;;;;;;;2.70;1.67;;;24.70;90.70;;;;;;4139113;28;20034;-65
2022/09/12 13:37:03;;;;;;;2.45;1.80;;;24.80;91.00;;;;;;4139948;28;20033;-64
2022/09/12 13:39:27;;;;;;;3.63;2.00;;;24.80;91.50;;;;;;4139595;28;20075;-64
2022/09/12 13:41:34;;;;;;;2.40;1.63;;;24.90;91.80;;;;;;4138121;28;20041;-64
2022/09/12 13:43:43;;;;;;;2.35;1.85;;;24.90;91.60;;;;;;4123108;28;20053;-64
2022/09/12 13:45:46;;;;;;;3.25;1.88;;;24.90;90.90;;;;;;4139724;28;20038;-65
2022/09/12 13:47:48;;;;;;;;;;;24.90;91.10;;;;;;4142965;28;20104;-64
2022/09/12 13:49:49;;;;;;;3.40;1.80;;;24.90;90.50;;;;;;4139785;28;20007;-64
2022/09/12 13:52:13;;;;;;;2.33;1.73;;;25.00;91.00;;;;;;4139652;28;20548;-64
2022/09/12 13:54:17;;;;;;;2.78;1.70;;;25.00;91.40;;;;;;4141788;28;20490;-64
2022/09/12 13:56:19;;;;;;;2.92;1.85;;;25.00;91.20;;;;;;4136605;28;20037;-65
2022/09/12 13:58:29;;;;;;;2.15;1.70;;;25.10;91.20;;;;;;4131866;28;20138;-64
2022/09/12 14:00:34;;;;;;;3.00;1.83;;;25.10;92.10;;;;;;4134722;28;20038;-64
2022/09/12 14:02:35;;;;;;;3.03;1.95;;;25.10;91.40;;;;;;4144409;28;20125;-64
2022/09/12 14:06:58;;;;;;;3.20;2.20;;;25.10;91.30;;;;;;4132974;28;20030;-64
2022/09/12 14:09:00;;;;;;;;;;;25.10;91.30;;;;;;4126672;28;20420;-64
2022/09/12 14:11:07;;;;;;;5.90;2.40;;;25.00;90.40;;;;;;4119854;28;19916;-63
2022/09/12 14:13:20;;;;;;;3.63;2.30;;;25.00;90.60;;;;;;4133239;28;20383;-64
2022/09/12 14:15:23;;;;;;;;;;;25.00;91.00;;;;;;4138311;28;20512;-65
2022/09/12 14:17:31;;;;;;;3.38;2.10;;;25.00;90.80;;;;;;4136342;28;19940;-65
2022/09/12 14:19:33;;;;;;;3.42;2.08;;;25.00;91.40;;;;;;4134330;28;20034;-65
2022/09/12 14:21:35;;;;;;;4.65;2.30;;;25.00;91.20;;;;;;4135360;28;20034;-65
2022/09/12 14:23:41;;;;;;;3.63;2.33;;;25.00;91.30;;;;;;4144815;28;20129;-63
2022/09/12 14:25:46;;;;;;;5.70;2.72;;;25.10;91.00;;;;;;4134089;28;20102;-65
2022/09/12 14:27:52;;;;;;;3.40;2.35;;;25.10;91.20;;;;;;4140804;28;20034;-64
2022/09/12 14:30:18;;;;;;;2.65;2.10;;;25.10;91.20;;;;;;4140000;28;22104;-64
2022/09/12 14:32:23;;;;;;;2.22;2.03;;;25.10;91.80;;;;;;4140902;28;20133;-63
2022/09/12 14:34:23;;;;;;;3.15;2.38;;;25.10;91.60;;;;;;4130961;28;20038;-64
2022/09/12 14:36:26;;;;;;;2.95;2.20;;;25.10;91.20;;;;;;4137994;28;20096;-64
2022/09/12 14:38:39;;;;;;;;;;;25.10;92.50;;;;;;4139466;28;20050;-63
2022/09/12 14:40:43;;;;;;;3.05;2.50;;;25.10;92.70;;;;;;4140546;28;19909;-64
2022/09/12 14:42:45;;;;;;;3.85;2.33;;;25.20;92.30;;;;;;4134775;28;20025;-63
2022/09/12 14:44:57;;;;;;;3.10;2.25;;;25.10;91.70;;;;;;4138644;28;20034;-64
2022/09/12 14:47:12;;;;;;;5.70;2.90;;;25.10;91.50;;;;;;4133223;28;20368;-64
2022/09/12 14:49:34;;;;;;;3.60;2.50;;;25.10;91.20;;;;;;4136192;28;20029;-68
2022/09/12 14:51:38;;;;;;;3.57;2.40;;;25.10;91.70;;;;;;4130523;28;20038;-63
2022/09/12 14:53:46;;;;;;;6.95;2.40;;;25.20;91.80;;;;;;4139580;28;20630;-64
2022/09/12 14:56:04;;;;;;;3.10;2.10;;;25.20;91.50;;;;;;4132423;28;20085;-64
2022/09/12 14:58:21;;;;;;;3.05;2.25;;;25.10;91.40;;;;;;4143846;28;20536;-64
2022/09/12 15:00:22;;;;;;;3.30;2.03;;;25.10;91.50;;;;;;4135220;28;20042;-64
2022/09/12 15:02:25;;;;;;;3.25;2.42;;;25.10;91.00;;;;;;4132354;28;20132;-64
2022/09/12 15:04:45;;;;;;;3.92;2.45;;;25.10;91.30;;;;;;4133389;28;20041;-64
2022/09/12 15:06:45;;;;;;;2.45;1.77;;;25.10;92.60;;;;;;4137486;28;20490;-64
2022/09/12 15:08:46;;;;;;;4.80;2.53;;;25.10;92.40;;;;;;4139781;28;20053;-64
2022/09/12 15:10:47;;;;;;;3.05;2.30;;;25.10;91.40;;;;;;4134780;28;20085;-63
2022/09/12 15:12:48;;;;;;;1.98;1.73;;;25.10;91.90;;;;;;4139196;28;20041;-64
2022/09/12 15:14:49;;;;;;;3.38;2.10;;;25.20;92.00;;;;;;4133003;28;20030;-64
2022/09/12 15:16:49;;;;;;;2.30;2.00;;;25.10;92.10;;;;;;4136135;28;20076;-63
2022/09/12 15:18:50;;;;;;;2.25;2.05;;;25.20;93.50;;;;;;4135322;28;20034;-64
2022/09/12 15:21:13;;;;;;;1.90;1.70;;;25.20;92.30;;;;;;4135555;28;20490;-63
2022/09/12 15:23:21;;;;;;;2.65;1.73;;;25.20;92.00;;;;;;4138361;28;20022;-64
2022/09/12 15:25:22;;;;;;;4.68;2.10;;;25.20;93.10;;;;;;4138078;28;20045;-64
2022/09/12 15:27:25;;;;;;;2.25;1.73;;;25.20;91.90;;;;;;4138812;28;20030;-65
2022/09/12 15:29:25;;;;;;;2.20;1.73;;;25.20;92.00;;;;;;4143737;28;20692;-64
2022/09/12 15:31:30;;;;;;;3.13;1.80;;;25.20;92.20;;;;;;4131596;28;20065;-64
2022/09/12 15:33:31;;;;;;;2.20;1.63;;;25.20;91.30;;;;;;4139891;28;20026;-64
2022/09/12 15:35:32;;;;;;;2.60;2.00;;;25.10;90.90;;;;;;4137911;28;20032;-64
2022/09/12 15:37:33;;;;;;;2.65;2.00;;;25.20;91.20;;;;;;4137549;28;20037;-65
2022/09/12 15:39:33;;;;;;;2.40;1.80;;;25.10;91.40;;;;;;4138392;28;20046;-63